Aldebaran — C6BD5 — position and weather

sailwx.info

Track history (hours):
 
Tides and Currents Weather Stations Pressure Air Temp Water Temp Dewpoint Dewpoint Depression Visibility Wind Speed Wind Dir Waves Ship Positions

Aldebaran

Last reported at 2017-Oct-23 02:20 UTC. Time now 2017-Oct-23 02:45 UTC.
Position N 36°06' W 005°22'.

Length 183 m; draft 9.6 m.

Type: Tanker. MMSI: 311000232.

Date/timePositionNaut miles runAvg speedWind from/ knotsBaromVisibWave heightAir tempDewpointWater temp
2017-Oct-23 02:20N 36°06' W 005°22'3 5.5
2017-Oct-23 01:50N 36°05' W 005°19'6 0.2
2017-Oct-21 20:00N 36°09' W 005°24'1 2.1
2017-Oct-21 19:27N 36°10' W 005°24'  
2017-Oct-18 17:16N 37°22' E 004°45'13712.6
2017-Oct-18 06:24N 37°39' E 007°36'2312.4
2017-Oct-18 04:30N 37°42' E 008°06'7712.1
2017-Oct-17 22:07N 37°39' E 009°43'211.8
2017-Oct-17 21:59N 37°39' E 009°45'611.8
2017-Oct-17 21:30N 37°38' E 009°52'1912.1
2017-Oct-17 19:54N 37°38' E 010°17'512.2
2017-Oct-17 19:31N 37°37' E 010°23'612.1
2017-Oct-17 19:00N 37°36' E 010°30'9612.5
2017-Oct-17 11:22N 37°01' E 012°22'512.4
2017-Oct-17 11:00N 36°60' E 012°28'712.5
2017-Oct-17 10:29N 36°58' E 012°35'1112.5
2017-Oct-17 09:37N 36°55' E 012°48'112.6
2017-Oct-17 09:30N 36°54' E 012°50'612.7
2017-Oct-17 09:01N 36°52' E 012°57'612.6
2017-Oct-17 08:31N 36°51' E 013°05'612.5
2017-Oct-17 08:01N 36°49' E 013°12'612.4
2017-Oct-17 07:30N 36°47' E 013°20'712.3
2017-Oct-17 06:58N 36°45' E 013°28'612.2
2017-Oct-17 06:29N 36°43' E 013°35'612.1
2017-Oct-17 06:00N 36°41' E 013°42'612.2
2017-Oct-17 05:30N 36°39' E 013°49'912.2
2017-Oct-17 04:44N 36°36' E 014°00'512.2
2017-Oct-17 04:22N 36°35' E 014°05'512.1
2017-Oct-17 03:56N 36°34' E 014°12'511.7
2017-Oct-17 03:30N 36°32' E 014°18'611.7
2017-Oct-17 03:00N 36°30' E 014°25'611.9
2017-Oct-17 02:30N 36°29' E 014°32'611.9
2017-Oct-17 02:00N 36°27' E 014°39'611.9
2017-Oct-17 01:31N 36°27' E 014°46'612.0
2017-Oct-17 01:00N 36°27' E 014°54'712.1
2017-Oct-17 00:28N 36°27' E 015°02'612.4
2017-Oct-16 23:59N 36°26' E 015°09'24412.7
2017-Oct-16 04:45N 36°22' E 020°12'21811.0
2017-Oct-15 08:55N 37°49' E 024°23'27410.0
2017-Oct-14 05:26N 40°54' E 028°43'710.5
2017-Oct-14 04:48N 40°56' E 028°52'0 1.4
2017-Oct-14 04:29N 40°56' E 028°52'1 2.3
2017-Oct-14 03:58N 40°57' E 028°54'1 2.5
2017-Oct-14 03:30N 40°57' E 028°55'1 2.3
2017-Oct-14 02:57N 40°57' E 028°57'  
Track history (hours):
 
Tides and Currents Weather Stations Pressure Air Temp Water Temp Dewpoint Dewpoint Depression Visibility Wind Speed Wind Dir Waves Ship Positions

Aldebaran

Last reported at 2017-Oct-23 02:20 UTC. Time now 2017-Oct-23 02:45 UTC.
Position N 36°06' W 005°22'.

Length 183 m; draft 9.6 m.

Type: Tanker. MMSI: 311000232.

Date/timePositionNaut miles runAvg speedWind from/ knotsBaromVisibWave heightAir tempDewpointWater temp
2017-Oct-23 02:20N 36°06' W 005°22'3 5.5
2017-Oct-23 01:50N 36°05' W 005°19'6 0.2
2017-Oct-21 20:00N 36°09' W 005°24'1 2.1
2017-Oct-21 19:27N 36°10' W 005°24'  
2017-Oct-18 17:16N 37°22' E 004°45'13712.6
2017-Oct-18 06:24N 37°39' E 007°36'2312.4
2017-Oct-18 04:30N 37°42' E 008°06'7712.1
2017-Oct-17 22:07N 37°39' E 009°43'211.8
2017-Oct-17 21:59N 37°39' E 009°45'611.8
2017-Oct-17 21:30N 37°38' E 009°52'1912.1
2017-Oct-17 19:54N 37°38' E 010°17'512.2
2017-Oct-17 19:31N 37°37' E 010°23'612.1
2017-Oct-17 19:00N 37°36' E 010°30'9612.5
2017-Oct-17 11:22N 37°01' E 012°22'512.4
2017-Oct-17 11:00N 36°60' E 012°28'712.5
2017-Oct-17 10:29N 36°58' E 012°35'1112.5
2017-Oct-17 09:37N 36°55' E 012°48'112.6
2017-Oct-17 09:30N 36°54' E 012°50'612.7
2017-Oct-17 09:01N 36°52' E 012°57'612.6
2017-Oct-17 08:31N 36°51' E 013°05'612.5
2017-Oct-17 08:01N 36°49' E 013°12'612.4
2017-Oct-17 07:30N 36°47' E 013°20'712.3
2017-Oct-17 06:58N 36°45' E 013°28'612.2
2017-Oct-17 06:29N 36°43' E 013°35'612.1
2017-Oct-17 06:00N 36°41' E 013°42'612.2
2017-Oct-17 05:30N 36°39' E 013°49'912.2
2017-Oct-17 04:44N 36°36' E 014°00'512.2
2017-Oct-17 04:22N 36°35' E 014°05'512.1
2017-Oct-17 03:56N 36°34' E 014°12'511.7
2017-Oct-17 03:30N 36°32' E 014°18'611.7
2017-Oct-17 03:00N 36°30' E 014°25'611.9
2017-Oct-17 02:30N 36°29' E 014°32'611.9
2017-Oct-17 02:00N 36°27' E 014°39'611.9
2017-Oct-17 01:31N 36°27' E 014°46'612.0
2017-Oct-17 01:00N 36°27' E 014°54'712.1
2017-Oct-17 00:28N 36°27' E 015°02'612.4
2017-Oct-16 23:59N 36°26' E 015°09'24412.7
2017-Oct-16 04:45N 36°22' E 020°12'21811.0
2017-Oct-15 08:55N 37°49' E 024°23'27410.0
2017-Oct-14 05:26N 40°54' E 028°43'710.5
2017-Oct-14 04:48N 40°56' E 028°52'0 1.4
2017-Oct-14 04:29N 40°56' E 028°52'1 2.3
2017-Oct-14 03:58N 40°57' E 028°54'1 2.5
2017-Oct-14 03:30N 40°57' E 028°55'1 2.3
2017-Oct-14 02:57N 40°57' E 028°57'  

Dump ship's entire track history